Ana Sayfa
METAR-TAF:

METAR-TAF

Havaalanları :

Tela, Honduras

Enlem: 15-43N, Boylam: 087-29W, yükseklik: 3 m

Güncel hava durumu gözlemi

Rapor saat 23:00 UTC de 38 dakika önce yapıldı.
Rüzgar doğudan 4 kt
Sıcaklık 28°C
Nem 89%
Basınç 1010 hPa
Görüş mesafesi 10 km veya daha fazla
2400 ft yükseklikte parçalı bulutlu, Yükselen kümülüs.

METAR: MHTE 102300Z 09004KT 9999 SCT024TCU 28/26 Q1010

Saat: 17:38 (23:38 UTC)


TAF: eksik

4.000'den fazla havaalanı için hava durumu gözlemleri ve tahminleri (METAR ve TAF raporları).

Kullanılabilir istasyonlar harita üzerinde sarı ve kırmızı noktalarla gösterilir.

İstasyonun adını görmek için fareyi noktanın üzerinde gezdirin.

Sonrasında hava gözlem ve tahminlerini görmek için tıklayın.

Haritayı değiştirmek için: yaklaştırmak için siyah artı işaretli yeşil düğmeye ve uzaklaştırmak için de eksi işaretli düğmeye hızla tıklayın; bitişik haritalar için yeşil okları kullanın.


METAR-TAF: